RYR2516 EKBI-EPMO
Flight info
| Callsign | RYR2516 |
|---|---|
| Flight time | 1h 12m |
| Altitude | 37000 |
| Route | RIDSI DCT KOSEB DCT BINKA DCT SORIX |
| Aircraft | B738/M-VGDW/C |
Departure
| Time | 2026-04-29 16:36 |
|---|---|
| Airport | Billund Airport (EKBI) |
Arrival
| Time | 2026-04-29 17:49 |
|---|---|
| Airport | Warsaw Modlin Airport (EPMO) |
| Time | Latitude | Longitude | Altitude | Speed | Heading |
|---|---|---|---|---|---|
| 2026-04-29 16:24 | 55.74527 | 9.14684 | 215 ft | 0 kts | 357° |
| 2026-04-29 16:26 | 55.74509 | 9.14686 | 215 ft | 3 kts | 357° |
| 2026-04-29 16:26 | 55.74490 | 9.14687 | 215 ft | 3 kts | 12° |
| 2026-04-29 16:26 | 55.74473 | 9.14674 | 217 ft | 3 kts | 42° |
| 2026-04-29 16:26 | 55.74461 | 9.14647 | 218 ft | 3 kts | 73° |
| 2026-04-29 16:27 | 55.74459 | 9.14628 | 215 ft | 0 kts | 91° |
| 2026-04-29 16:29 | 55.74459 | 9.14639 | 215 ft | 3 kts | 91° |
| 2026-04-29 16:30 | 55.74453 | 9.14702 | 221 ft | 7 kts | 100° |
| 2026-04-29 16:30 | 55.74450 | 9.14805 | 215 ft | 10 kts | 88° |
| 2026-04-29 16:30 | 55.74449 | 9.14930 | 215 ft | 10 kts | 107° |
| 2026-04-29 16:30 | 55.74390 | 9.14982 | 223 ft | 11 kts | 179° |
| 2026-04-29 16:31 | 55.74316 | 9.14985 | 215 ft | 10 kts | 178° |
| 2026-04-29 16:31 | 55.74237 | 9.14998 | 218 ft | 13 kts | 171° |
| 2026-04-29 16:31 | 55.74199 | 9.15134 | 215 ft | 15 kts | 85° |
| 2026-04-29 16:31 | 55.74206 | 9.15331 | 215 ft | 17 kts | 87° |
| 2026-04-29 16:32 | 55.74212 | 9.15559 | 215 ft | 20 kts | 87° |
| 2026-04-29 16:32 | 55.74219 | 9.15815 | 222 ft | 22 kts | 87° |
| 2026-04-29 16:32 | 55.74229 | 9.16099 | 215 ft | 24 kts | 86° |
| 2026-04-29 16:32 | 55.74239 | 9.16406 | 215 ft | 26 kts | 87° |
| 2026-04-29 16:33 | 55.74258 | 9.17000 | 218 ft | 23 kts | 86° |
| 2026-04-29 16:33 | 55.74266 | 9.17277 | 223 ft | 22 kts | 86° |
| 2026-04-29 16:33 | 55.74274 | 9.17546 | 215 ft | 22 kts | 87° |
| 2026-04-29 16:34 | 55.74282 | 9.17807 | 218 ft | 20 kts | 86° |
| 2026-04-29 16:34 | 55.74288 | 9.17991 | 215 ft | 13 kts | 89° |
| 2026-04-29 16:34 | 55.74255 | 9.18124 | 221 ft | 10 kts | 136° |
| 2026-04-29 16:34 | 55.74190 | 9.18149 | 215 ft | 10 kts | 174° |
| 2026-04-29 16:35 | 55.74130 | 9.18117 | 218 ft | 9 kts | 233° |
| 2026-04-29 16:35 | 55.74124 | 9.18060 | 215 ft | 3 kts | 265° |
| 2026-04-29 16:35 | 55.74122 | 9.18023 | 215 ft | 3 kts | 265° |
| 2026-04-29 16:35 | 55.74116 | 9.17833 | 215 ft | 45 kts | 267° |
| 2026-04-29 16:36 | 55.74086 | 9.16814 | 215 ft | 118 kts | 266° |
| 2026-04-29 16:36 | 55.74043 | 9.15043 | 467 ft | 155 kts | 269° |
| 2026-04-29 16:36 | 55.73978 | 9.13049 | 1314 ft | 169 kts | 266° |
| 2026-04-29 16:36 | 55.73946 | 9.10883 | 2042 ft | 182 kts | 278° |
| 2026-04-29 16:37 | 55.74415 | 9.08800 | 2799 ft | 186 kts | 313° |
| 2026-04-29 16:37 | 55.75536 | 9.07752 | 3562 ft | 186 kts | 359° |
| 2026-04-29 16:37 | 55.76687 | 9.08567 | 4319 ft | 185 kts | 51° |
| 2026-04-29 16:37 | 55.77164 | 9.09839 | 4797 ft | 188 kts | 58° |
| 2026-04-29 16:38 | 55.78140 | 9.12449 | 5650 ft | 201 kts | 54° |
| 2026-04-29 16:38 | 55.78903 | 9.14379 | 6671 ft | 177 kts | 53° |
| 2026-04-29 16:38 | 55.79698 | 9.15965 | 7451 ft | 181 kts | 39° |
| 2026-04-29 16:38 | 55.80733 | 9.17517 | 7671 ft | 206 kts | 40° |
| 2026-04-29 16:39 | 55.81856 | 9.19311 | 7884 ft | 228 kts | 42° |
| 2026-04-29 16:39 | 55.83065 | 9.21312 | 8242 ft | 244 kts | 43° |
| 2026-04-29 16:39 | 55.84357 | 9.23486 | 8550 ft | 266 kts | 43° |
| 2026-04-29 16:39 | 55.85660 | 9.25888 | 9280 ft | 273 kts | 55° |
| 2026-04-29 16:40 | 55.86352 | 9.29025 | 10141 ft | 278 kts | 81° |
| 2026-04-29 16:40 | 55.86171 | 9.32489 | 10835 ft | 290 kts | 106° |
| 2026-04-29 16:40 | 55.85174 | 9.35789 | 11072 ft | 317 kts | 121° |
| 2026-04-29 16:40 | 55.83859 | 9.39115 | 11253 ft | 341 kts | 123° |
| 2026-04-29 16:41 | 55.82408 | 9.42630 | 11442 ft | 362 kts | 124° |
| 2026-04-29 16:41 | 55.80904 | 9.46251 | 11885 ft | 374 kts | 124° |
| 2026-04-29 16:41 | 55.79353 | 9.50002 | 12561 ft | 378 kts | 124° |
| 2026-04-29 16:41 | 55.77798 | 9.53791 | 13310 ft | 380 kts | 123° |
| 2026-04-29 16:42 | 55.76228 | 9.57638 | 14000 ft | 385 kts | 123° |
| 2026-04-29 16:42 | 55.74652 | 9.61513 | 14629 ft | 389 kts | 123° |
| 2026-04-29 16:42 | 55.73053 | 9.65449 | 15230 ft | 393 kts | 123° |
| 2026-04-29 16:42 | 55.71465 | 9.69357 | 15808 ft | 398 kts | 123° |
| 2026-04-29 16:43 | 55.69835 | 9.73362 | 16393 ft | 402 kts | 124° |
| 2026-04-29 16:43 | 55.68187 | 9.77407 | 16970 ft | 406 kts | 124° |
| 2026-04-29 16:43 | 55.66518 | 9.81494 | 17518 ft | 411 kts | 124° |
| 2026-04-29 16:43 | 55.64834 | 9.85613 | 18086 ft | 415 kts | 124° |
| 2026-04-29 16:44 | 55.63131 | 9.89774 | 18649 ft | 419 kts | 124° |
| 2026-04-29 16:44 | 55.61403 | 9.93986 | 19133 ft | 424 kts | 124° |
| 2026-04-29 16:44 | 55.59664 | 9.98214 | 19634 ft | 427 kts | 124° |
| 2026-04-29 16:44 | 55.58022 | 10.02604 | 20155 ft | 428 kts | 119° |
| 2026-04-29 16:45 | 55.56580 | 10.07225 | 20636 ft | 431 kts | 116° |
| 2026-04-29 16:45 | 55.55219 | 10.11964 | 21115 ft | 434 kts | 115° |
| 2026-04-29 16:45 | 55.53885 | 10.16707 | 21568 ft | 438 kts | 115° |
| 2026-04-29 16:45 | 55.52514 | 10.21546 | 22037 ft | 441 kts | 115° |
| 2026-04-29 16:46 | 55.51120 | 10.26387 | 22486 ft | 444 kts | 116° |
| 2026-04-29 16:46 | 55.49695 | 10.31257 | 22914 ft | 448 kts | 116° |
| 2026-04-29 16:46 | 55.48241 | 10.36162 | 23333 ft | 452 kts | 116° |
| 2026-04-29 16:46 | 55.46772 | 10.41076 | 23752 ft | 455 kts | 117° |
| 2026-04-29 16:47 | 55.45283 | 10.46030 | 24147 ft | 458 kts | 117° |
| 2026-04-29 16:47 | 55.43785 | 10.50999 | 24482 ft | 461 kts | 117° |
| 2026-04-29 16:47 | 55.42293 | 10.55934 | 24832 ft | 463 kts | 117° |
| 2026-04-29 16:47 | 55.40775 | 10.60949 | 25186 ft | 466 kts | 117° |
| 2026-04-29 16:48 | 55.39241 | 10.66006 | 25528 ft | 468 kts | 117° |
| 2026-04-29 16:48 | 55.37705 | 10.71060 | 25851 ft | 471 kts | 117° |
| 2026-04-29 16:48 | 55.36157 | 10.76147 | 26154 ft | 473 kts | 117° |
| 2026-04-29 16:48 | 55.34598 | 10.81257 | 26473 ft | 475 kts | 117° |
| 2026-04-29 16:49 | 55.33028 | 10.86392 | 26796 ft | 477 kts | 117° |
| 2026-04-29 16:49 | 55.31451 | 10.91538 | 27086 ft | 480 kts | 117° |
| 2026-04-29 16:49 | 55.29864 | 10.96709 | 27373 ft | 483 kts | 117° |
| 2026-04-29 16:49 | 55.28267 | 11.01897 | 27658 ft | 485 kts | 117° |
| 2026-04-29 16:50 | 55.26656 | 11.07124 | 27955 ft | 487 kts | 117° |
| 2026-04-29 16:50 | 55.25039 | 11.12355 | 28216 ft | 489 kts | 117° |
| 2026-04-29 16:50 | 55.23412 | 11.17607 | 28518 ft | 490 kts | 117° |
| 2026-04-29 16:50 | 55.21785 | 11.22848 | 28923 ft | 490 kts | 117° |
| 2026-04-29 16:51 | 55.20181 | 11.28002 | 29367 ft | 488 kts | 118° |
| 2026-04-29 16:51 | 55.18557 | 11.33213 | 29756 ft | 488 kts | 118° |
| 2026-04-29 16:51 | 55.16928 | 11.38426 | 30072 ft | 489 kts | 118° |
| 2026-04-29 16:51 | 55.15294 | 11.43642 | 30420 ft | 489 kts | 118° |
| 2026-04-29 16:52 | 55.13658 | 11.48858 | 30770 ft | 488 kts | 118° |
| 2026-04-29 16:52 | 55.12025 | 11.54050 | 31087 ft | 487 kts | 118° |
| 2026-04-29 16:52 | 55.10389 | 11.59239 | 31391 ft | 487 kts | 118° |
| 2026-04-29 16:52 | 55.08757 | 11.64407 | 31729 ft | 486 kts | 118° |
| 2026-04-29 16:53 | 55.07124 | 11.69565 | 32078 ft | 485 kts | 118° |
| 2026-04-29 16:53 | 55.05489 | 11.74721 | 32374 ft | 485 kts | 118° |
| 2026-04-29 16:53 | 55.03854 | 11.79863 | 32652 ft | 485 kts | 118° |
| 2026-04-29 16:53 | 55.02218 | 11.84998 | 32980 ft | 483 kts | 118° |
| 2026-04-29 16:54 | 55.00587 | 11.90107 | 33336 ft | 482 kts | 118° |
| 2026-04-29 16:54 | 54.98974 | 11.95148 | 33619 ft | 481 kts | 119° |
| 2026-04-29 16:54 | 54.97339 | 12.00247 | 33889 ft | 482 kts | 118° |
| 2026-04-29 16:54 | 54.95701 | 12.05345 | 34187 ft | 481 kts | 119° |
| 2026-04-29 16:55 | 54.94069 | 12.10414 | 34509 ft | 479 kts | 119° |
| 2026-04-29 16:55 | 54.92438 | 12.15470 | 34728 ft | 480 kts | 119° |
| 2026-04-29 16:55 | 54.90803 | 12.20529 | 34883 ft | 481 kts | 119° |
| 2026-04-29 16:55 | 54.89157 | 12.25610 | 35067 ft | 482 kts | 119° |
| 2026-04-29 16:56 | 54.87509 | 12.30685 | 35293 ft | 481 kts | 119° |
| 2026-04-29 16:56 | 54.85863 | 12.35745 | 35478 ft | 482 kts | 119° |
| 2026-04-29 16:56 | 54.84234 | 12.40745 | 35644 ft | 483 kts | 119° |
| 2026-04-29 16:56 | 54.82577 | 12.45819 | 35836 ft | 483 kts | 119° |
| 2026-04-29 16:57 | 54.80922 | 12.50879 | 36048 ft | 482 kts | 119° |
| 2026-04-29 16:57 | 54.79258 | 12.55940 | 36217 ft | 483 kts | 121° |
| 2026-04-29 16:57 | 54.77366 | 12.60798 | 36345 ft | 484 kts | 129° |
| 2026-04-29 16:57 | 54.75086 | 12.65089 | 36517 ft | 483 kts | 136° |
| 2026-04-29 16:58 | 54.72678 | 12.69140 | 36737 ft | 482 kts | 137° |
| 2026-04-29 16:58 | 54.70285 | 12.73098 | 36932 ft | 482 kts | 137° |
| 2026-04-29 16:58 | 54.67855 | 12.77111 | 37092 ft | 482 kts | 137° |
| 2026-04-29 16:58 | 54.65422 | 12.81148 | 37236 ft | 483 kts | 137° |
| 2026-04-29 16:59 | 54.63009 | 12.85179 | 37411 ft | 483 kts | 137° |
| 2026-04-29 16:59 | 54.60593 | 12.89231 | 37459 ft | 485 kts | 137° |
| 2026-04-29 16:59 | 54.55747 | 12.97372 | 37466 ft | 486 kts | 137° |
| 2026-04-29 17:00 | 54.50912 | 13.05471 | 37462 ft | 483 kts | 137° |
| 2026-04-29 17:00 | 54.46112 | 13.13488 | 37466 ft | 485 kts | 137° |
| 2026-04-29 17:01 | 54.41265 | 13.21554 | 37470 ft | 486 kts | 137° |
| 2026-04-29 17:01 | 54.36381 | 13.29650 | 37466 ft | 487 kts | 137° |
| 2026-04-29 17:02 | 54.31517 | 13.37683 | 37463 ft | 488 kts | 137° |
| 2026-04-29 17:02 | 54.26606 | 13.45764 | 37461 ft | 489 kts | 137° |
| 2026-04-29 17:03 | 54.21694 | 13.53822 | 37460 ft | 489 kts | 137° |
| 2026-04-29 17:03 | 54.16774 | 13.61862 | 37461 ft | 489 kts | 137° |
| 2026-04-29 17:04 | 54.11854 | 13.69877 | 37465 ft | 489 kts | 137° |
| 2026-04-29 17:04 | 54.06961 | 13.77819 | 37463 ft | 489 kts | 137° |
| 2026-04-29 17:05 | 54.02029 | 13.85798 | 37457 ft | 489 kts | 137° |
| 2026-04-29 17:05 | 53.97091 | 13.93759 | 37452 ft | 488 kts | 137° |
| 2026-04-29 17:06 | 53.92988 | 14.00353 | 37449 ft | 488 kts | 137° |
| 2026-04-29 17:06 | 53.88048 | 14.08269 | 37450 ft | 488 kts | 137° |
| 2026-04-29 17:07 | 53.83102 | 14.16171 | 37454 ft | 488 kts | 137° |
| 2026-04-29 17:07 | 53.78311 | 14.24185 | 37444 ft | 488 kts | 128° |
| 2026-04-29 17:08 | 53.74855 | 14.34012 | 37451 ft | 485 kts | 110° |
| 2026-04-29 17:08 | 53.72916 | 14.44887 | 37459 ft | 483 kts | 103° |
| 2026-04-29 17:09 | 53.71185 | 14.55789 | 37462 ft | 484 kts | 103° |
| 2026-04-29 17:09 | 53.69397 | 14.66771 | 37462 ft | 485 kts | 103° |
| 2026-04-29 17:10 | 53.67560 | 14.77741 | 37452 ft | 485 kts | 103° |
| 2026-04-29 17:10 | 53.65698 | 14.88695 | 37458 ft | 486 kts | 104° |
| 2026-04-29 17:11 | 53.63833 | 14.99591 | 37457 ft | 486 kts | 103° |
| 2026-04-29 17:11 | 53.61939 | 15.10605 | 37460 ft | 486 kts | 104° |
| 2026-04-29 17:12 | 53.60058 | 15.21480 | 37458 ft | 486 kts | 104° |
| 2026-04-29 17:12 | 53.58478 | 15.30565 | 37457 ft | 486 kts | 104° |
| 2026-04-29 17:13 | 53.56244 | 15.43328 | 37454 ft | 485 kts | 104° |
| 2026-04-29 17:13 | 53.54342 | 15.54128 | 37457 ft | 484 kts | 104° |
| 2026-04-29 17:14 | 53.52417 | 15.64985 | 37460 ft | 483 kts | 104° |
| 2026-04-29 17:14 | 53.50490 | 15.75795 | 37449 ft | 483 kts | 104° |
| 2026-04-29 17:15 | 53.48555 | 15.86587 | 37457 ft | 482 kts | 104° |
| 2026-04-29 17:15 | 53.46624 | 15.97288 | 37455 ft | 481 kts | 104° |
| 2026-04-29 17:16 | 53.44675 | 16.08030 | 37456 ft | 480 kts | 104° |
| 2026-04-29 17:16 | 53.42718 | 16.18751 | 37454 ft | 480 kts | 104° |
| 2026-04-29 17:17 | 53.40753 | 16.29453 | 37451 ft | 480 kts | 104° |
| 2026-04-29 17:17 | 53.38781 | 16.40137 | 37451 ft | 479 kts | 104° |
| 2026-04-29 17:18 | 53.36814 | 16.50726 | 37454 ft | 479 kts | 104° |
| 2026-04-29 17:18 | 53.34825 | 16.61376 | 37449 ft | 479 kts | 104° |
| 2026-04-29 17:19 | 53.32825 | 16.72021 | 37452 ft | 479 kts | 104° |
| 2026-04-29 17:19 | 53.30815 | 16.82664 | 37449 ft | 479 kts | 104° |
| 2026-04-29 17:20 | 53.28793 | 16.93309 | 37446 ft | 480 kts | 104° |
| 2026-04-29 17:20 | 53.26776 | 17.03865 | 37440 ft | 480 kts | 104° |
| 2026-04-29 17:21 | 53.24734 | 17.14492 | 37443 ft | 480 kts | 104° |
| 2026-04-29 17:21 | 53.22682 | 17.25118 | 37441 ft | 480 kts | 104° |
| 2026-04-29 17:22 | 53.20631 | 17.35677 | 37441 ft | 480 kts | 104° |
| 2026-04-29 17:22 | 53.18562 | 17.46266 | 37434 ft | 480 kts | 105° |
| 2026-04-29 17:23 | 53.16483 | 17.56850 | 37435 ft | 480 kts | 105° |
| 2026-04-29 17:23 | 53.14392 | 17.67448 | 36972 ft | 486 kts | 104° |
| 2026-04-29 17:24 | 53.13333 | 17.72790 | 36449 ft | 484 kts | 104° |
| 2026-04-29 17:24 | 53.12274 | 17.78108 | 35826 ft | 484 kts | 104° |
| 2026-04-29 17:24 | 53.11215 | 17.83417 | 35192 ft | 483 kts | 104° |
| 2026-04-29 17:24 | 53.10153 | 17.88730 | 34552 ft | 483 kts | 103° |
| 2026-04-29 17:25 | 53.09088 | 17.94042 | 33769 ft | 484 kts | 103° |
| 2026-04-29 17:25 | 53.08020 | 17.99352 | 33059 ft | 483 kts | 103° |
| 2026-04-29 17:25 | 53.06955 | 18.04637 | 32351 ft | 482 kts | 103° |
| 2026-04-29 17:25 | 53.05899 | 18.09859 | 31628 ft | 481 kts | 103° |
| 2026-04-29 17:26 | 53.04833 | 18.15123 | 30899 ft | 481 kts | 103° |
| 2026-04-29 17:26 | 53.03762 | 18.20392 | 30090 ft | 480 kts | 103° |
| 2026-04-29 17:26 | 53.02694 | 18.25639 | 29264 ft | 479 kts | 103° |
| 2026-04-29 17:26 | 53.01629 | 18.30842 | 28747 ft | 471 kts | 103° |
| 2026-04-29 17:27 | 53.00574 | 18.35980 | 28179 ft | 466 kts | 103° |
| 2026-04-29 17:27 | 52.99534 | 18.41040 | 27621 ft | 460 kts | 103° |
| 2026-04-29 17:27 | 52.98503 | 18.46040 | 27085 ft | 455 kts | 103° |
| 2026-04-29 17:27 | 52.97483 | 18.50988 | 26532 ft | 450 kts | 103° |
| 2026-04-29 17:28 | 52.96469 | 18.55889 | 25989 ft | 446 kts | 104° |
| 2026-04-29 17:28 | 52.95477 | 18.60680 | 25468 ft | 442 kts | 104° |
| 2026-04-29 17:28 | 52.94480 | 18.65476 | 24941 ft | 438 kts | 104° |
| 2026-04-29 17:28 | 52.93489 | 18.70235 | 24421 ft | 435 kts | 104° |
| 2026-04-29 17:29 | 52.92504 | 18.74955 | 23879 ft | 432 kts | 104° |
| 2026-04-29 17:29 | 52.91522 | 18.79649 | 23274 ft | 429 kts | 104° |
| 2026-04-29 17:29 | 52.90545 | 18.84308 | 22732 ft | 424 kts | 105° |
| 2026-04-29 17:29 | 52.89905 | 18.87353 | 22376 ft | 422 kts | 105° |
| 2026-04-29 17:30 | 52.88628 | 18.93410 | 21689 ft | 416 kts | 105° |
| 2026-04-29 17:30 | 52.87674 | 18.97929 | 21166 ft | 413 kts | 105° |
| 2026-04-29 17:30 | 52.86729 | 19.02393 | 20653 ft | 410 kts | 105° |
| 2026-04-29 17:30 | 52.85789 | 19.06826 | 20147 ft | 407 kts | 105° |
| 2026-04-29 17:31 | 52.84853 | 19.11227 | 19646 ft | 404 kts | 105° |
| 2026-04-29 17:31 | 52.83923 | 19.15594 | 19142 ft | 401 kts | 106° |
| 2026-04-29 17:31 | 52.82995 | 19.19939 | 18657 ft | 399 kts | 106° |
| 2026-04-29 17:31 | 52.82084 | 19.24198 | 18084 ft | 397 kts | 106° |
| 2026-04-29 17:32 | 52.81164 | 19.28490 | 17563 ft | 394 kts | 106° |
| 2026-04-29 17:32 | 52.80251 | 19.32733 | 17073 ft | 390 kts | 106° |
| 2026-04-29 17:32 | 52.79343 | 19.36953 | 16580 ft | 387 kts | 106° |
| 2026-04-29 17:32 | 52.78444 | 19.41117 | 16093 ft | 384 kts | 106° |
| 2026-04-29 17:33 | 52.77550 | 19.45253 | 15613 ft | 381 kts | 106° |
| 2026-04-29 17:33 | 52.76661 | 19.49358 | 15118 ft | 378 kts | 106° |
| 2026-04-29 17:33 | 52.75772 | 19.53455 | 14615 ft | 377 kts | 106° |
| 2026-04-29 17:33 | 52.74891 | 19.57511 | 14123 ft | 375 kts | 106° |
| 2026-04-29 17:34 | 52.74023 | 19.61498 | 13599 ft | 372 kts | 106° |
| 2026-04-29 17:34 | 52.73149 | 19.65504 | 13108 ft | 369 kts | 106° |
| 2026-04-29 17:34 | 52.72280 | 19.69475 | 12623 ft | 366 kts | 106° |
| 2026-04-29 17:34 | 52.71423 | 19.73377 | 12400 ft | 356 kts | 106° |
| 2026-04-29 17:35 | 52.69218 | 19.78867 | 12162 ft | 346 kts | 140° |
| 2026-04-29 17:35 | 52.66341 | 19.81103 | 11760 ft | 343 kts | 167° |
| 2026-04-29 17:35 | 52.63974 | 19.81339 | 11394 ft | 340 kts | 184° |
| 2026-04-29 17:36 | 52.61622 | 19.81035 | 11045 ft | 338 kts | 186° |
| 2026-04-29 17:36 | 52.59305 | 19.80656 | 10814 ft | 331 kts | 186° |
| 2026-04-29 17:36 | 52.57032 | 19.80283 | 10643 ft | 323 kts | 186° |
| 2026-04-29 17:36 | 52.54849 | 19.79943 | 10498 ft | 315 kts | 186° |
| 2026-04-29 17:37 | 52.52683 | 19.79621 | 10400 ft | 306 kts | 186° |
| 2026-04-29 17:37 | 52.50588 | 19.79319 | 10155 ft | 302 kts | 185° |
| 2026-04-29 17:37 | 52.48492 | 19.79022 | 9823 ft | 301 kts | 186° |
| 2026-04-29 17:37 | 52.46410 | 19.78730 | 9521 ft | 299 kts | 185° |
| 2026-04-29 17:38 | 52.44349 | 19.78441 | 9363 ft | 292 kts | 185° |
| 2026-04-29 17:38 | 52.42351 | 19.78208 | 9257 ft | 284 kts | 178° |
| 2026-04-29 17:38 | 52.40489 | 19.78981 | 9149 ft | 272 kts | 148° |
| 2026-04-29 17:38 | 52.39097 | 19.80926 | 8983 ft | 260 kts | 122° |
| 2026-04-29 17:39 | 52.38320 | 19.83537 | 8728 ft | 252 kts | 101° |
| 2026-04-29 17:39 | 52.38140 | 19.86285 | 8463 ft | 244 kts | 81° |
| 2026-04-29 17:39 | 52.38330 | 19.89025 | 8210 ft | 241 kts | 78° |
| 2026-04-29 17:39 | 52.38551 | 19.91738 | 7964 ft | 240 kts | 78° |
| 2026-04-29 17:40 | 52.38773 | 19.94441 | 7712 ft | 238 kts | 78° |
| 2026-04-29 17:40 | 52.38991 | 19.97123 | 7464 ft | 237 kts | 79° |
| 2026-04-29 17:40 | 52.39207 | 19.99811 | 7212 ft | 236 kts | 79° |
| 2026-04-29 17:40 | 52.39418 | 20.02454 | 6777 ft | 243 kts | 79° |
| 2026-04-29 17:41 | 52.39639 | 20.05253 | 6350 ft | 249 kts | 80° |
| 2026-04-29 17:41 | 52.39861 | 20.08081 | 6036 ft | 250 kts | 80° |
| 2026-04-29 17:41 | 52.40081 | 20.10906 | 5741 ft | 249 kts | 80° |
| 2026-04-29 17:41 | 52.40293 | 20.13662 | 5661 ft | 237 kts | 79° |
| 2026-04-29 17:42 | 52.40492 | 20.16265 | 5544 ft | 224 kts | 79° |
| 2026-04-29 17:42 | 52.40678 | 20.18715 | 5448 ft | 210 kts | 79° |
| 2026-04-29 17:42 | 52.40873 | 20.21033 | 5096 ft | 208 kts | 77° |
| 2026-04-29 17:42 | 52.41106 | 20.23391 | 4747 ft | 206 kts | 77° |
| 2026-04-29 17:43 | 52.41345 | 20.25680 | 4488 ft | 200 kts | 75° |
| 2026-04-29 17:43 | 52.41613 | 20.27879 | 4210 ft | 193 kts | 75° |
| 2026-04-29 17:43 | 52.41840 | 20.29989 | 4046 ft | 184 kts | 76° |
| 2026-04-29 17:43 | 52.42042 | 20.32032 | 3843 ft | 178 kts | 77° |
| 2026-04-29 17:44 | 52.42227 | 20.33997 | 3656 ft | 176 kts | 77° |
| 2026-04-29 17:44 | 52.42410 | 20.35979 | 3485 ft | 176 kts | 78° |
| 2026-04-29 17:44 | 52.42588 | 20.37927 | 3305 ft | 169 kts | 78° |
| 2026-04-29 17:44 | 52.42758 | 20.39793 | 3112 ft | 166 kts | 78° |
| 2026-04-29 17:45 | 52.42933 | 20.41686 | 2971 ft | 169 kts | 78° |
| 2026-04-29 17:45 | 52.43107 | 20.43574 | 2740 ft | 164 kts | 79° |
| 2026-04-29 17:45 | 52.43275 | 20.45403 | 2521 ft | 160 kts | 79° |
| 2026-04-29 17:45 | 52.43441 | 20.47196 | 2313 ft | 158 kts | 79° |
| 2026-04-29 17:46 | 52.43601 | 20.48930 | 2128 ft | 155 kts | 79° |
| 2026-04-29 17:46 | 52.43759 | 20.50637 | 1911 ft | 146 kts | 79° |
| 2026-04-29 17:46 | 52.43906 | 20.52218 | 1757 ft | 137 kts | 79° |
| 2026-04-29 17:46 | 52.44051 | 20.53784 | 1550 ft | 138 kts | 79° |
| 2026-04-29 17:47 | 52.44195 | 20.55327 | 1350 ft | 135 kts | 79° |
| 2026-04-29 17:47 | 52.44335 | 20.56822 | 1170 ft | 130 kts | 79° |
| 2026-04-29 17:47 | 52.44471 | 20.58261 | 962 ft | 127 kts | 79° |
| 2026-04-29 17:47 | 52.44611 | 20.59701 | 785 ft | 128 kts | 80° |
| 2026-04-29 17:48 | 52.44736 | 20.61147 | 621 ft | 128 kts | 79° |
| 2026-04-29 17:48 | 52.44878 | 20.62588 | 429 ft | 126 kts | 79° |
| 2026-04-29 17:48 | 52.45006 | 20.63957 | 339 ft | 115 kts | 80° |
| 2026-04-29 17:48 | 52.45096 | 20.64911 | 331 ft | 54 kts | 81° |
| 2026-04-29 17:49 | 52.45126 | 20.65230 | 334 ft | 18 kts | 81° |
| 2026-04-29 17:49 | 52.45145 | 20.65430 | 338 ft | 17 kts | 81° |
| 2026-04-29 17:49 | 52.45163 | 20.65622 | 340 ft | 17 kts | 81° |
| 2026-04-29 17:49 | 52.45180 | 20.65808 | 339 ft | 16 kts | 81° |
| 2026-04-29 17:50 | 52.45180 | 20.65962 | 333 ft | 13 kts | 120° |
| 2026-04-29 17:50 | 52.45103 | 20.66024 | 335 ft | 12 kts | 160° |
| 2026-04-29 17:50 | 52.45024 | 20.66072 | 336 ft | 12 kts | 160° |
| 2026-04-29 17:50 | 52.44948 | 20.66117 | 336 ft | 11 kts | 160° |
| 2026-04-29 17:51 | 52.44881 | 20.66113 | 337 ft | 10 kts | 224° |
| 2026-04-29 17:51 | 52.44859 | 20.66005 | 336 ft | 10 kts | 259° |
| 2026-04-29 17:51 | 52.44848 | 20.65893 | 334 ft | 10 kts | 261° |
| 2026-04-29 17:51 | 52.44838 | 20.65785 | 337 ft | 10 kts | 262° |
| 2026-04-29 17:52 | 52.44830 | 20.65679 | 337 ft | 9 kts | 263° |
| 2026-04-29 17:52 | 52.44823 | 20.65610 | 337 ft | 9 kts | 258° |
| 2026-04-29 17:52 | 52.44813 | 20.65483 | 337 ft | 6 kts | 260° |
| 2026-04-29 17:52 | 52.44793 | 20.65446 | 336 ft | 3 kts | 210° |
| 2026-04-29 17:53 | 52.44773 | 20.65428 | 333 ft | 3 kts | 206° |
| 2026-04-29 17:53 | 52.44764 | 20.65421 | 337 ft | 1 kts | 206° |
| 2026-04-29 17:53 | 52.44760 | 20.65418 | 337 ft | 0 kts | 206° |